createdAt,value
2024-01-15T00:01:50.545Z,6.50
2024-01-15T00:04:39.910Z,6.47
2024-01-15T00:07:25.823Z,7.88
2024-01-15T00:10:11.229Z,7.10
2024-01-15T00:12:56.869Z,4.65
2024-01-15T00:15:42.804Z,5.35
2024-01-15T00:18:28.361Z,7.10
2024-01-15T00:21:14.026Z,5.80
2024-01-15T00:23:59.421Z,6.75
2024-01-15T00:26:45.273Z,5.20
2024-01-15T00:29:30.733Z,5.70
2024-01-15T00:32:16.099Z,5.75
2024-01-15T00:35:01.654Z,2.95
2024-01-15T00:37:47.200Z,5.07
2024-01-15T00:40:32.661Z,4.03
2024-01-15T00:43:20.072Z,4.03
2024-01-15T00:46:06.004Z,6.07
2024-01-15T00:48:51.511Z,4.80
2024-01-15T00:51:36.881Z,4.20
2024-01-15T00:54:22.523Z,4.70
2024-01-15T00:57:07.991Z,4.45
2024-01-15T00:59:53.460Z,4.97
2024-01-15T01:02:39.038Z,3.38
2024-01-15T01:05:24.655Z,3.85
2024-01-15T01:08:10.193Z,4.53
2024-01-15T01:10:57.845Z,4.03
2024-01-15T01:13:43.483Z,4.65
2024-01-15T01:16:28.850Z,2.90
2024-01-15T01:19:14.550Z,3.65
2024-01-15T01:21:59.819Z,5.25
2024-01-15T01:24:45.456Z,3.60
2024-01-15T01:27:30.961Z,3.97
2024-01-15T01:30:16.626Z,3.70
2024-01-15T01:33:02.033Z,2.85
2024-01-15T01:35:48.397Z,2.92
2024-01-15T01:38:34.012Z,3.25
2024-01-15T01:41:19.542Z,2.90
2024-01-15T01:44:05.141Z,4.03
2024-01-15T01:46:50.968Z,2.78
2024-01-15T01:49:38.089Z,4.07
2024-01-15T01:52:24.160Z,4.22
2024-01-15T01:55:11.440Z,4.00
2024-01-15T01:57:57.555Z,3.28
2024-01-15T02:00:43.286Z,3.28
2024-01-15T02:03:29.735Z,2.85
2024-01-15T02:06:15.814Z,3.13
2024-01-15T02:09:01.882Z,2.30
2024-01-15T02:11:50.895Z,3.83
2024-01-15T02:14:36.369Z,3.33
2024-01-15T02:17:21.921Z,3.08
2024-01-15T02:20:07.839Z,2.95
2024-01-15T02:22:53.435Z,3.42
2024-01-15T02:25:44.675Z,2.78
2024-01-15T02:28:30.384Z,2.70
2024-01-15T02:31:15.653Z,2.90
2024-01-15T02:34:01.390Z,2.80
2024-01-15T02:36:46.726Z,3.35
2024-01-15T02:39:32.293Z,1.85
2024-01-15T02:42:17.614Z,3.42
2024-01-15T02:45:05.487Z,2.95
2024-01-15T02:47:51.538Z,2.22
2024-01-15T02:50:36.976Z,2.88
2024-01-15T02:53:22.558Z,2.20
2024-01-15T02:56:08.911Z,2.08
2024-01-15T02:58:54.064Z,2.58
2024-01-15T03:01:39.545Z,1.92
2024-01-15T03:04:25.026Z,3.00
2024-01-15T03:07:10.456Z,1.90
2024-01-15T03:09:56.211Z,2.40
2024-01-15T03:12:41.703Z,2.00
2024-01-15T03:15:27.248Z,1.60
2024-01-15T03:18:12.680Z,2.72
2024-01-15T03:20:58.071Z,3.03
2024-01-15T03:23:43.670Z,2.75
2024-01-15T03:26:29.254Z,2.92
2024-01-15T03:29:14.974Z,2.78
2024-01-15T03:32:00.425Z,2.65
2024-01-15T03:34:46.228Z,1.83
2024-01-15T03:37:31.603Z,2.92
2024-01-15T03:40:21.062Z,3.15
2024-01-15T03:43:08.712Z,2.40
2024-01-15T03:45:54.515Z,2.22
2024-01-15T03:48:39.989Z,3.38
2024-01-15T03:51:26.276Z,1.45
2024-01-15T03:54:11.668Z,2.88
2024-01-15T03:56:57.128Z,2.55
2024-01-15T03:59:43.094Z,2.97
2024-01-15T04:02:28.764Z,1.83
2024-01-15T04:05:14.261Z,2.60
2024-01-15T04:08:00.062Z,2.10
2024-01-15T04:10:45.579Z,2.00
2024-01-15T04:13:33.938Z,2.80
2024-01-15T04:16:19.235Z,3.08
2024-01-15T04:19:04.806Z,3.35
2024-01-15T04:21:50.380Z,3.00
2024-01-15T04:24:35.749Z,2.47
2024-01-15T04:27:21.429Z,2.13
2024-01-15T04:30:07.549Z,3.28
2024-01-15T04:32:53.014Z,2.50
2024-01-15T04:35:38.561Z,2.03
2024-01-15T04:38:24.000Z,3.20
2024-01-15T04:41:14.259Z,2.03
2024-01-15T04:44:01.595Z,3.00
2024-01-15T04:46:46.806Z,2.38
2024-01-15T04:49:32.471Z,3.28
2024-01-15T04:52:18.408Z,3.10
2024-01-15T04:55:03.986Z,3.70
2024-01-15T04:57:49.836Z,4.07
2024-01-15T05:00:35.414Z,3.78
2024-01-15T05:03:21.313Z,2.88
2024-01-15T05:06:07.225Z,2.63
2024-01-15T05:08:52.911Z,2.40
2024-01-15T05:11:38.323Z,2.75
2024-01-15T05:14:23.826Z,3.20
2024-01-15T05:17:11.378Z,2.47
2024-01-15T05:19:57.555Z,2.70
2024-01-15T05:22:43.299Z,3.38
2024-01-15T05:25:28.738Z,3.17
2024-01-15T05:28:15.680Z,2.60
2024-01-15T05:31:01.600Z,2.95
2024-01-15T05:33:47.260Z,3.05
2024-01-15T05:36:32.715Z,2.90
2024-01-15T05:39:19.420Z,2.83
2024-01-15T05:42:05.856Z,2.83
2024-01-15T05:44:51.465Z,2.80
2024-01-15T05:47:37.047Z,2.35
2024-01-15T05:50:23.188Z,2.85
2024-01-15T05:53:08.614Z,2.70
2024-01-15T05:55:55.308Z,2.50
2024-01-15T05:58:40.620Z,3.00
2024-01-15T06:01:26.079Z,2.22
2024-01-15T06:04:11.739Z,3.35
2024-01-15T06:06:57.080Z,2.92
2024-01-15T06:09:42.513Z,3.45
2024-01-15T06:12:29.583Z,3.28
2024-01-15T06:15:15.068Z,3.60
2024-01-15T06:18:00.751Z,2.22
2024-01-15T06:20:46.079Z,2.05
2024-01-15T06:23:31.497Z,2.78
2024-01-15T06:26:17.125Z,3.05
2024-01-15T06:29:03.940Z,3.67
2024-01-15T06:31:49.333Z,3.03
2024-01-15T06:34:35.151Z,2.38
2024-01-15T06:37:21.359Z,3.30
2024-01-15T06:40:07.335Z,2.35
2024-01-15T06:42:52.769Z,3.97
2024-01-15T06:45:38.287Z,3.83
2024-01-15T06:48:23.692Z,3.58
2024-01-15T06:51:09.581Z,3.13
2024-01-15T06:53:54.826Z,2.60
2024-01-15T06:56:40.325Z,3.28
2024-01-15T06:59:25.866Z,3.08
2024-01-15T07:02:11.661Z,2.78
2024-01-15T07:04:57.027Z,3.00
2024-01-15T07:07:42.667Z,2.70
2024-01-15T07:10:28.113Z,3.28
2024-01-15T07:13:13.718Z,2.63
2024-01-15T07:15:59.696Z,3.53
2024-01-15T07:18:45.060Z,3.35
2024-01-15T07:21:31.211Z,3.38
2024-01-15T07:24:16.763Z,3.35
2024-01-15T07:27:02.233Z,2.88
2024-01-15T07:29:49.869Z,2.20
2024-01-15T07:32:35.471Z,2.28
2024-01-15T07:35:20.968Z,2.78
2024-01-15T07:38:06.606Z,2.42
2024-01-15T07:40:51.960Z,2.80
2024-01-15T07:43:37.679Z,3.20
2024-01-15T07:46:23.178Z,2.30
2024-01-15T07:49:08.682Z,2.95
2024-01-15T07:51:54.230Z,2.05
2024-01-15T07:54:39.537Z,2.10
2024-01-15T07:57:24.917Z,2.28
2024-01-15T08:00:11.953Z,2.58
2024-01-15T08:02:57.770Z,1.90
2024-01-15T08:05:43.351Z,2.55
2024-01-15T08:08:28.729Z,2.55
2024-01-15T08:11:14.396Z,2.55
2024-01-15T08:13:59.725Z,1.90
2024-01-15T08:16:45.348Z,2.80
2024-01-15T08:19:31.458Z,2.13
2024-01-15T08:22:17.112Z,2.60
2024-01-15T08:25:02.806Z,2.17
2024-01-15T08:27:48.572Z,2.50
2024-01-15T08:30:34.142Z,2.60
2024-01-15T08:33:22.226Z,2.42
2024-01-15T08:36:08.704Z,2.90
2024-01-15T08:38:54.489Z,2.60
2024-01-15T08:41:39.959Z,2.05
2024-01-15T08:44:25.423Z,1.88
2024-01-15T08:47:11.111Z,2.58
2024-01-15T08:49:56.600Z,2.00
2024-01-15T08:52:42.228Z,2.08
2024-01-15T08:55:27.625Z,2.83
2024-01-15T08:58:13.311Z,2.75
2024-01-15T09:00:58.968Z,2.60
2024-01-15T09:03:44.457Z,2.97
2024-01-15T09:06:29.953Z,2.30
2024-01-15T09:09:18.156Z,1.85
2024-01-15T09:12:03.541Z,2.47
2024-01-15T09:14:49.108Z,1.92
2024-01-15T09:17:34.578Z,2.13
2024-01-15T09:20:20.340Z,2.85
2024-01-15T09:23:05.938Z,2.13
2024-01-15T09:25:53.741Z,2.30
2024-01-15T09:28:39.071Z,2.50
2024-01-15T09:31:24.771Z,2.20
2024-01-15T09:34:11.054Z,2.25
2024-01-15T09:36:56.953Z,2.03
2024-01-15T09:39:42.598Z,2.50
2024-01-15T09:42:29.494Z,2.20
2024-01-15T09:45:15.620Z,1.67
2024-01-15T09:48:01.865Z,1.65
2024-01-15T09:50:47.564Z,2.05
2024-01-15T09:53:35.098Z,2.08
2024-01-15T09:56:20.457Z,2.08
2024-01-15T09:59:07.022Z,1.55
2024-01-15T10:01:53.822Z,2.00
2024-01-15T10:04:39.420Z,2.50
2024-01-15T10:07:27.287Z,1.80
2024-01-15T10:10:13.292Z,1.50
2024-01-15T10:13:00.895Z,1.70
2024-01-15T10:15:48.300Z,1.40
2024-01-15T10:18:34.187Z,1.50
2024-01-15T10:21:20.190Z,1.60
2024-01-15T10:24:05.998Z,1.88
2024-01-15T10:26:51.189Z,1.77
2024-01-15T10:29:37.503Z,1.92
2024-01-15T10:32:25.081Z,1.50
2024-01-15T10:35:11.320Z,1.85
2024-01-15T10:37:56.949Z,1.60
2024-01-15T10:40:43.767Z,1.58
2024-01-15T10:43:29.784Z,1.85
2024-01-15T10:46:15.217Z,1.98
2024-01-15T10:49:01.184Z,1.80
2024-01-15T10:51:48.266Z,1.92
2024-01-15T10:54:35.004Z,1.90
2024-01-15T10:57:23.589Z,1.95
2024-01-15T11:00:10.137Z,1.50
2024-01-15T11:02:56.785Z,1.92
2024-01-15T11:05:45.957Z,2.20
2024-01-15T11:08:32.742Z,1.83
2024-01-15T11:11:19.004Z,2.97
2024-01-15T11:14:04.520Z,2.60
2024-01-15T11:16:57.723Z,1.90
2024-01-15T11:19:43.348Z,2.22
2024-01-15T11:22:32.483Z,1.90
2024-01-15T11:25:20.033Z,2.08
2024-01-15T11:28:05.643Z,1.70
2024-01-15T11:30:51.107Z,1.90
2024-01-15T11:33:36.824Z,2.40
2024-01-15T11:36:42.729Z,2.13
2024-01-15T11:39:33.759Z,2.08
2024-01-15T11:42:21.754Z,1.30
2024-01-15T11:45:06.958Z,1.50
2024-01-15T11:48:13.026Z,1.75
2024-01-15T11:51:00.967Z,1.70
2024-01-15T11:53:49.850Z,1.20
2024-01-15T11:56:35.015Z,1.92
2024-01-15T11:59:20.665Z,1.23
2024-01-15T12:02:06.485Z,1.75
2024-01-15T12:04:52.387Z,1.83
2024-01-15T12:07:37.729Z,1.75
2024-01-15T12:10:23.820Z,1.90
2024-01-15T12:13:14.400Z,1.35
2024-01-15T12:16:05.224Z,2.30
2024-01-15T12:18:50.710Z,1.55
2024-01-15T12:21:36.050Z,1.73
2024-01-15T12:24:21.740Z,2.47
2024-01-15T12:27:07.927Z,1.27
2024-01-15T12:29:54.605Z,1.80
2024-01-15T12:32:43.090Z,1.33
2024-01-15T12:35:28.650Z,1.55
2024-01-15T12:38:13.837Z,1.60
2024-01-15T12:41:01.542Z,1.70
2024-01-15T12:43:47.791Z,1.30
2024-01-15T12:46:33.467Z,1.40
2024-01-15T12:49:19.000Z,1.70
2024-01-15T12:52:04.737Z,1.83
2024-01-15T12:54:53.244Z,1.45
2024-01-15T12:57:39.345Z,1.80
2024-01-15T13:00:26.804Z,0.95
2024-01-15T13:03:12.491Z,1.77
2024-01-15T13:05:58.017Z,2.00
2024-01-15T13:08:43.455Z,1.85
2024-01-15T13:11:29.350Z,1.77
2024-01-15T13:14:14.778Z,0.93
2024-01-15T13:17:00.553Z,1.70
2024-01-15T13:19:45.914Z,1.77
2024-01-15T13:22:33.945Z,1.67
2024-01-15T13:25:19.688Z,1.83
2024-01-15T13:28:06.424Z,1.92
2024-01-15T13:30:51.922Z,1.90
2024-01-15T13:33:39.841Z,1.75
2024-01-15T13:36:27.730Z,1.60
2024-01-15T13:39:13.381Z,1.63
2024-01-15T13:41:59.208Z,1.75
2024-01-15T13:44:44.629Z,2.10
2024-01-15T13:47:30.302Z,1.92
2024-01-15T13:50:16.050Z,2.00
2024-01-15T13:53:01.408Z,1.42
2024-01-15T13:55:46.961Z,1.90
2024-01-15T13:58:33.858Z,1.52
2024-01-15T14:01:19.403Z,1.77
2024-01-15T14:04:04.999Z,1.92
2024-01-15T14:06:50.339Z,1.83
2024-01-15T14:09:35.944Z,1.80
2024-01-15T14:12:21.297Z,1.90
2024-01-15T14:15:07.583Z,2.15
2024-01-15T14:17:53.697Z,1.80
2024-01-15T14:20:39.728Z,1.35
2024-01-15T14:23:25.332Z,2.05
2024-01-15T14:26:10.958Z,1.45
2024-01-15T14:28:56.144Z,1.38
2024-01-15T14:31:41.958Z,1.67
2024-01-15T14:34:27.738Z,1.83
2024-01-15T14:37:13.443Z,1.17
2024-01-15T14:39:59.047Z,1.80
2024-01-15T14:42:44.409Z,2.03
2024-01-15T14:45:31.347Z,1.45
2024-01-15T14:48:17.091Z,1.52
2024-01-15T14:51:04.246Z,1.77
2024-01-15T14:53:49.571Z,1.58
2024-01-15T14:56:35.049Z,1.58
2024-01-15T14:59:20.636Z,1.63
2024-01-15T15:02:06.364Z,1.55
2024-01-15T15:04:51.760Z,1.83
2024-01-15T15:07:37.702Z,1.42
2024-01-15T15:10:23.774Z,1.70
2024-01-15T15:13:09.289Z,1.60
2024-01-15T15:15:55.583Z,1.38
2024-01-15T15:18:41.365Z,1.70
2024-01-15T15:21:27.872Z,1.02
2024-01-15T15:24:12.937Z,1.92
2024-01-15T15:26:58.630Z,1.40
2024-01-15T15:29:44.093Z,1.45
2024-01-15T15:32:29.659Z,1.67
2024-01-15T15:35:15.403Z,1.30
2024-01-15T15:38:01.036Z,1.23
2024-01-15T15:40:46.558Z,1.52
2024-01-15T15:43:32.294Z,1.00
2024-01-15T15:46:17.766Z,1.48
2024-01-15T15:49:07.793Z,1.25
2024-01-15T15:51:53.979Z,1.60
2024-01-15T15:54:39.438Z,1.33
2024-01-15T15:57:27.265Z,0.95
2024-01-15T16:00:13.605Z,1.80
2024-01-15T16:02:59.137Z,1.40
2024-01-15T16:05:52.044Z,0.90
2024-01-15T16:08:38.902Z,1.00
2024-01-15T16:11:24.852Z,1.35
2024-01-15T16:14:10.798Z,1.15
2024-01-15T16:23:13.414Z,1.20
2024-01-15T16:23:28.760Z,1.25
2024-01-15T16:24:00.270Z,1.30
2024-01-15T16:26:16.104Z,1.10
2024-01-15T16:29:04.256Z,1.42
2024-01-15T16:31:50.592Z,0.65
2024-01-15T16:34:36.235Z,0.95
2024-01-15T16:37:22.062Z,1.40
2024-01-15T16:40:09.590Z,1.08
2024-01-15T16:42:55.980Z,0.95
2024-01-15T16:45:41.012Z,1.40
2024-01-15T16:48:26.583Z,1.33
2024-01-15T16:51:13.174Z,2.67
2024-01-15T16:53:59.255Z,1.60
2024-01-15T16:56:44.969Z,1.80
2024-01-15T16:59:31.381Z,2.90
2024-01-15T17:02:16.947Z,1.90
2024-01-15T17:05:02.611Z,4.82
2024-01-15T17:07:47.903Z,3.75
2024-01-15T17:10:34.423Z,2.00
2024-01-15T17:13:19.992Z,1.52
2024-01-15T17:16:05.827Z,1.55
2024-01-15T17:18:51.336Z,1.80
2024-01-15T17:21:36.651Z,1.48
2024-01-15T17:24:22.317Z,1.67
2024-01-15T17:27:08.775Z,1.90
2024-01-15T17:29:56.506Z,1.60
2024-01-15T17:32:42.186Z,1.85
2024-01-15T17:35:27.485Z,1.80
2024-01-15T17:38:13.137Z,1.60
2024-01-15T17:40:59.011Z,1.95
2024-01-15T17:43:44.247Z,1.55
2024-01-15T17:46:30.361Z,1.60
2024-01-15T17:49:15.706Z,2.00
2024-01-15T17:52:01.213Z,2.00
2024-01-15T17:54:46.701Z,1.65
2024-01-15T17:57:32.153Z,1.80
2024-01-15T18:00:18.569Z,2.05
2024-01-15T18:03:04.150Z,2.45
2024-01-15T18:05:49.709Z,2.13
2024-01-15T18:08:35.269Z,2.20
2024-01-15T18:11:20.746Z,2.17
2024-01-15T18:14:06.296Z,1.75
2024-01-15T18:16:52.182Z,1.90
2024-01-15T18:19:37.741Z,1.67
2024-01-15T18:22:23.420Z,1.90
2024-01-15T18:25:09.011Z,1.92
2024-01-15T18:27:54.346Z,1.85
2024-01-15T18:30:39.705Z,2.28
2024-01-15T18:33:25.334Z,2.28
2024-01-15T18:36:12.059Z,1.90
2024-01-15T18:38:59.883Z,2.00
2024-01-15T18:41:45.972Z,1.38
2024-01-15T18:44:31.521Z,2.10
2024-01-15T18:47:17.084Z,2.10
2024-01-15T18:50:02.711Z,2.40
2024-01-15T18:52:48.284Z,1.88
2024-01-15T18:55:33.842Z,1.77
2024-01-15T18:58:19.413Z,1.27
2024-01-15T19:01:04.958Z,2.25
2024-01-15T19:03:50.456Z,1.67
2024-01-15T19:06:35.865Z,2.20
2024-01-15T19:09:21.687Z,2.00
2024-01-15T19:12:07.701Z,2.10
2024-01-15T19:14:53.169Z,2.42
2024-01-15T19:17:39.317Z,2.05
2024-01-15T19:20:24.555Z,1.88
2024-01-15T19:23:11.040Z,1.75
2024-01-15T19:25:57.407Z,1.88
2024-01-15T19:28:42.488Z,1.70
2024-01-15T19:31:30.536Z,2.13
2024-01-15T19:34:16.417Z,1.70
2024-01-15T19:37:02.194Z,1.55
2024-01-15T19:39:48.141Z,1.63
2024-01-15T19:42:33.158Z,1.92
2024-01-15T19:45:18.690Z,1.95
2024-01-15T19:48:05.198Z,2.10
2024-01-15T19:50:51.868Z,1.45
2024-01-15T19:53:38.472Z,1.80
2024-01-15T19:56:24.015Z,1.90
2024-01-15T19:59:09.515Z,2.28
2024-01-15T20:01:55.233Z,2.13
2024-01-15T20:04:40.522Z,1.60
2024-01-15T20:07:26.164Z,2.17
2024-01-15T20:10:11.829Z,1.83
2024-01-15T20:12:58.255Z,1.60
2024-01-15T20:15:43.725Z,2.20
2024-01-15T20:18:29.289Z,1.52
2024-01-15T20:21:15.701Z,1.40
2024-01-15T20:24:04.283Z,1.92
2024-01-15T20:26:50.100Z,1.48
2024-01-15T20:29:35.989Z,1.88
2024-01-15T20:32:21.575Z,1.80
2024-01-15T20:35:07.664Z,2.72
2024-01-15T20:37:56.552Z,2.25
2024-01-15T20:40:42.083Z,2.00
2024-01-15T20:43:28.237Z,1.20
2024-01-15T20:46:13.764Z,2.00
2024-01-15T20:48:59.715Z,2.13
2024-01-15T20:51:45.477Z,2.30
2024-01-15T20:54:30.955Z,1.63
2024-01-15T20:57:16.620Z,2.13
2024-01-15T21:00:02.342Z,1.88
2024-01-15T21:02:48.286Z,2.17
2024-01-15T21:05:34.253Z,2.42
2024-01-15T21:08:19.895Z,2.38
2024-01-15T21:11:05.611Z,2.03
2024-01-15T21:13:51.088Z,1.98
2024-01-15T21:16:36.631Z,2.10
2024-01-15T21:19:22.528Z,2.47
2024-01-15T21:22:09.007Z,2.28
2024-01-15T21:24:55.511Z,2.33
2024-01-15T21:27:41.825Z,1.95
2024-01-15T21:30:27.713Z,1.90
2024-01-15T21:33:13.308Z,1.90
2024-01-15T21:35:59.040Z,2.20
2024-01-15T21:38:45.091Z,1.60
2024-01-15T21:41:30.786Z,1.90
2024-01-15T21:44:17.572Z,2.20
2024-01-15T21:47:03.142Z,1.65
2024-01-15T21:49:49.453Z,1.88
2024-01-15T21:52:34.801Z,0.90
2024-01-15T21:55:20.526Z,2.10
2024-01-15T21:58:06.314Z,1.25
2024-01-15T22:00:52.016Z,1.40
2024-01-15T22:03:38.007Z,1.70
2024-01-15T22:06:23.674Z,1.30
2024-01-15T22:09:09.685Z,1.25
2024-01-15T22:11:55.654Z,1.90
2024-01-15T22:14:41.673Z,2.03
2024-01-15T22:17:27.204Z,1.65
2024-01-15T22:20:13.394Z,1.60
2024-01-15T22:22:59.678Z,1.88
2024-01-15T22:25:45.035Z,2.05
2024-01-15T22:28:31.486Z,1.70
2024-01-15T22:31:17.036Z,1.05
2024-01-15T22:34:02.961Z,2.17
2024-01-15T22:36:48.740Z,1.73
2024-01-15T22:39:34.216Z,1.02
2024-01-15T22:42:19.892Z,1.48
2024-01-15T22:45:07.104Z,1.50
2024-01-15T22:47:52.929Z,1.50
2024-01-15T22:50:38.252Z,1.25
2024-01-15T22:53:23.789Z,1.52
2024-01-15T22:56:09.646Z,1.60
2024-01-15T22:58:55.391Z,1.30
2024-01-15T23:01:40.844Z,1.40
2024-01-15T23:04:26.696Z,1.63
2024-01-15T23:07:11.929Z,1.40
2024-01-15T23:09:57.411Z,1.25
2024-01-15T23:12:43.078Z,1.75
2024-01-15T23:15:29.670Z,1.23
2024-01-15T23:18:15.500Z,1.48
2024-01-15T23:21:00.771Z,1.30
2024-01-15T23:23:46.292Z,1.30
2024-01-15T23:26:32.421Z,1.77
2024-01-15T23:29:17.825Z,1.33
2024-01-15T23:32:05.085Z,0.95
2024-01-15T23:34:50.695Z,1.40
2024-01-15T23:37:36.365Z,1.23
2024-01-15T23:40:21.913Z,1.40
2024-01-15T23:43:08.391Z,1.15
2024-01-15T23:45:59.487Z,1.33
2024-01-15T23:48:48.062Z,1.20
2024-01-15T23:51:33.457Z,1.10
2024-01-15T23:54:21.737Z,0.95
2024-01-15T23:57:07.659Z,1.92
2024-01-15T23:59:53.305Z,1.20
